createdAt,value
2022-10-04T00:00:14.731Z,8.96
2022-10-04T00:01:14.734Z,8.97
2022-10-04T00:02:14.908Z,8.97
2022-10-04T00:03:15.079Z,8.92
2022-10-04T00:04:14.749Z,8.92
2022-10-04T00:05:14.741Z,8.86
2022-10-04T00:06:17.833Z,8.93
2022-10-04T00:07:14.749Z,8.9
2022-10-04T00:08:14.766Z,8.93
2022-10-04T00:09:14.752Z,9.08
2022-10-04T00:10:14.748Z,8.92
2022-10-04T00:11:14.770Z,8.97
2022-10-04T00:12:14.746Z,8.93
2022-10-04T00:13:14.778Z,8.86
2022-10-04T00:14:14.745Z,8.96
2022-10-04T00:15:14.764Z,8.9
2022-10-04T00:16:14.900Z,8.9
2022-10-04T00:17:17.771Z,8.93
2022-10-04T00:18:14.758Z,8.89
2022-10-04T00:19:14.790Z,8.78
2022-10-04T00:20:14.761Z,8.74
2022-10-04T00:21:14.784Z,8.79
2022-10-04T00:22:14.795Z,8.82
2022-10-04T00:23:14.784Z,8.78
2022-10-04T00:24:14.819Z,8.78
2022-10-04T00:25:14.776Z,8.72
2022-10-04T00:26:14.771Z,8.74
2022-10-04T00:27:14.792Z,8.86
2022-10-04T00:28:18.039Z,8.79
2022-10-04T00:29:14.804Z,8.78
2022-10-04T00:30:14.782Z,8.79
2022-10-04T00:31:15.024Z,8.68
2022-10-04T00:32:14.873Z,8.79
2022-10-04T00:33:14.819Z,8.72
2022-10-04T00:34:14.785Z,8.74
2022-10-04T00:35:14.821Z,8.78
2022-10-04T00:36:14.788Z,8.75
2022-10-04T00:37:14.807Z,8.81
2022-10-04T00:38:14.805Z,8.74
2022-10-04T00:39:14.784Z,8.68
2022-10-04T00:40:15.019Z,8.75
2022-10-04T00:41:14.787Z,8.64
2022-10-04T00:42:14.798Z,8.71
2022-10-04T00:43:14.811Z,8.68
2022-10-04T00:44:14.806Z,8.63
2022-10-04T00:45:14.820Z,8.64
2022-10-04T00:46:15.031Z,8.52
2022-10-04T00:47:14.800Z,8.57
2022-10-04T00:48:14.941Z,8.54
2022-10-04T00:49:14.807Z,8.5
2022-10-04T00:50:14.806Z,8.39
2022-10-04T00:51:14.837Z,8.41
2022-10-04T00:52:14.815Z,8.41
2022-10-04T00:53:14.824Z,8.23
2022-10-04T00:54:14.805Z,8.32
2022-10-04T00:55:14.807Z,8.2
2022-10-04T00:56:14.845Z,8.28
2022-10-04T00:57:14.834Z,8.18
2022-10-04T00:58:14.837Z,8.18
2022-10-04T00:59:14.840Z,8.23
2022-10-04T01:00:14.822Z,8.27
2022-10-04T01:01:15.062Z,8.18
2022-10-04T01:02:14.984Z,8.13
2022-10-04T01:03:14.860Z,8.11
2022-10-04T01:04:14.840Z,8.11
2022-10-04T01:05:14.822Z,8.13
2022-10-04T01:06:14.821Z,8.23
2022-10-04T01:07:14.966Z,8.16
2022-10-04T01:08:14.873Z,8.2
2022-10-04T01:09:14.850Z,8.31
2022-10-04T01:10:14.899Z,8.27
2022-10-04T01:11:17.972Z,8.23
2022-10-04T01:12:14.838Z,8.18
2022-10-04T01:13:14.894Z,8.26
2022-10-04T01:14:14.846Z,8.24
2022-10-04T01:15:14.849Z,8.2
2022-10-04T01:16:15.123Z,8.23
2022-10-04T01:17:14.868Z,8.17
2022-10-04T01:18:14.866Z,8.05
2022-10-04T01:19:14.865Z,8.18
2022-10-04T01:20:14.857Z,8.06
2022-10-04T01:21:14.866Z,8.17
2022-10-04T01:22:17.735Z,8.09
2022-10-04T01:23:14.869Z,8.09
2022-10-04T01:24:14.856Z,8.13
2022-10-04T01:25:14.869Z,8.11
2022-10-04T01:26:14.855Z,8.08
2022-10-04T01:27:14.878Z,8.14
2022-10-04T01:28:15.065Z,8.06
2022-10-04T01:29:14.956Z,8.16
2022-10-04T01:30:17.759Z,8.16
2022-10-04T01:31:15.067Z,8.18
2022-10-04T01:32:14.873Z,8.08
2022-10-04T01:33:17.921Z,8.09
2022-10-04T01:34:14.972Z,8.18
2022-10-04T01:35:14.870Z,8.09
2022-10-04T01:36:14.877Z,8.05
2022-10-04T01:37:14.888Z,8.09
2022-10-04T01:38:14.913Z,8.01
2022-10-04T01:39:14.944Z,8.03
2022-10-04T01:40:14.965Z,8.05
2022-10-04T01:41:14.895Z,8.06
2022-10-04T01:42:14.894Z,8.08
2022-10-04T01:43:14.958Z,8.08
2022-10-04T01:44:17.964Z,8.14
2022-10-04T01:45:14.890Z,8.08
2022-10-04T01:46:15.037Z,8.11
2022-10-04T01:47:14.898Z,8.13
2022-10-04T01:48:14.899Z,8.17
2022-10-04T01:49:18.013Z,8.13
2022-10-04T01:50:22.992Z,8.14
2022-10-04T01:51:14.898Z,8.21
2022-10-04T01:52:14.896Z,8.2
2022-10-04T01:53:14.925Z,8.2
2022-10-04T01:54:14.919Z,8.18
2022-10-04T01:55:17.949Z,8.18
2022-10-04T01:56:15.038Z,8.13
2022-10-04T01:57:14.896Z,8.17
2022-10-04T01:58:15.949Z,8.17
2022-10-04T01:59:14.929Z,8.16
2022-10-04T02:00:18.023Z,8.13
2022-10-04T02:01:15.114Z,8.24
2022-10-04T02:02:14.912Z,8.2
2022-10-04T02:03:14.930Z,8.2
2022-10-04T02:04:18.537Z,8.18
2022-10-04T02:05:14.941Z,8.27
2022-10-04T02:06:18.013Z,8.09
2022-10-04T02:07:14.925Z,8.2
2022-10-04T02:08:14.940Z,8.18
2022-10-04T02:09:14.922Z,8.16
2022-10-04T02:10:14.941Z,8.11
2022-10-04T02:11:16.032Z,8.06
2022-10-04T02:12:14.946Z,8.14
2022-10-04T02:13:14.944Z,8.06
2022-10-04T02:14:14.946Z,8.06
2022-10-04T02:15:15.012Z,8.03
2022-10-04T02:16:15.036Z,8.02
2022-10-04T02:17:18.075Z,8.05
2022-10-04T02:18:14.986Z,8.14
2022-10-04T02:19:14.943Z,8.02
2022-10-04T02:20:14.942Z,8.05
2022-10-04T02:21:14.958Z,8.05
2022-10-04T02:22:17.943Z,8.05
2022-10-04T02:23:14.987Z,8.03
2022-10-04T02:24:14.985Z,8.03
2022-10-04T02:25:14.951Z,8.05
2022-10-04T02:26:14.995Z,8.05
2022-10-04T02:27:17.679Z,8.05
2022-10-04T02:28:17.962Z,7.99
2022-10-04T02:29:14.969Z,7.93
2022-10-04T02:30:14.979Z,7.98
2022-10-04T02:31:18.048Z,8.02
2022-10-04T02:32:14.970Z,7.88
2022-10-04T02:33:18.780Z,7.95
2022-10-04T02:34:14.959Z,7.93
2022-10-04T02:35:17.958Z,7.81
2022-10-04T02:36:14.973Z,7.81
2022-10-04T02:37:15.156Z,7.9
2022-10-04T02:38:14.987Z,7.93
2022-10-04T02:39:14.991Z,7.93
2022-10-04T02:40:14.999Z,8.02
2022-10-04T02:41:14.960Z,7.96
2022-10-04T02:42:15.112Z,8.03
2022-10-04T02:43:14.991Z,7.98
2022-10-04T02:44:17.892Z,8.02
2022-10-04T02:45:15.210Z,8.02
2022-10-04T02:46:15.207Z,7.99
2022-10-04T02:47:15.023Z,7.87
2022-10-04T02:48:15.001Z,7.99
2022-10-04T02:49:14.983Z,7.95
2022-10-04T02:50:14.990Z,7.98
2022-10-04T02:51:14.997Z,8.01
2022-10-04T02:52:14.977Z,8.02
2022-10-04T02:53:15.013Z,7.99
2022-10-04T02:54:14.991Z,8.05
2022-10-04T02:55:18.837Z,8.01
2022-10-04T02:56:14.980Z,7.93
2022-10-04T02:57:15.167Z,8.06
2022-10-04T02:58:15.042Z,8.02
2022-10-04T02:59:14.996Z,8.08
2022-10-04T03:00:14.987Z,8.01
2022-10-04T03:01:15.216Z,8.06
2022-10-04T03:02:15.157Z,8.08
2022-10-04T03:03:15.036Z,8.02
2022-10-04T03:04:15.067Z,8.08
2022-10-04T03:05:14.992Z,8.05
2022-10-04T03:06:15.000Z,8.11
2022-10-04T03:07:15.001Z,8.11
2022-10-04T03:08:15.108Z,8.06
2022-10-04T03:09:15.026Z,8.2
2022-10-04T03:10:15.010Z,8.21
2022-10-04T03:11:15.005Z,8.17
2022-10-04T03:12:15.007Z,8.17
2022-10-04T03:13:15.071Z,8.23
2022-10-04T03:14:15.026Z,8.23
2022-10-04T03:15:15.106Z,8.08
2022-10-04T03:16:15.302Z,8.24
2022-10-04T03:17:15.016Z,8.21
2022-10-04T03:18:15.049Z,8.26
2022-10-04T03:19:15.040Z,8.21
2022-10-04T03:20:18.045Z,8.23
2022-10-04T03:21:15.026Z,8.17
2022-10-04T03:22:15.019Z,8.18
2022-10-04T03:23:15.043Z,8.28
2022-10-04T03:24:15.025Z,8.13
2022-10-04T03:25:15.170Z,8.09
2022-10-04T03:26:15.156Z,8.13
2022-10-04T03:27:15.031Z,8.14
2022-10-04T03:28:15.311Z,8.21
2022-10-04T03:29:15.030Z,8.21
2022-10-04T03:30:15.063Z,8.14
2022-10-04T03:31:15.039Z,8.21
2022-10-04T03:32:15.030Z,8.23
2022-10-04T03:33:15.062Z,8.05
2022-10-04T03:34:15.040Z,8.06
2022-10-04T03:35:15.054Z,8.09
2022-10-04T03:36:15.042Z,8.18
2022-10-04T03:37:15.052Z,8.17
2022-10-04T03:38:18.082Z,8.21
2022-10-04T03:39:15.046Z,8.16
2022-10-04T03:40:15.043Z,8.23
2022-10-04T03:41:15.078Z,8.18
2022-10-04T03:42:15.041Z,8.03
2022-10-04T03:43:15.097Z,8.14
2022-10-04T03:44:15.048Z,8.16
2022-10-04T03:45:15.062Z,8.21
2022-10-04T03:46:15.261Z,8.23
2022-10-04T03:47:15.050Z,8.06
2022-10-04T03:48:15.072Z,8.06
2022-10-04T03:49:17.840Z,8.14
2022-10-04T03:50:15.067Z,8.05
2022-10-04T03:51:15.073Z,8.14
2022-10-04T03:52:15.059Z,8.13
2022-10-04T03:53:15.080Z,8.13
2022-10-04T03:54:15.061Z,8.14
2022-10-04T03:55:15.070Z,8.09
2022-10-04T03:56:15.072Z,8.14
2022-10-04T03:57:15.087Z,8.09
2022-10-04T03:58:15.094Z,8.16
2022-10-04T03:59:15.079Z,8.08
2022-10-04T04:00:17.863Z,8.03
2022-10-04T04:01:15.303Z,8.16
2022-10-04T04:02:15.412Z,8.14
2022-10-04T04:03:15.100Z,8.18
2022-10-04T04:04:15.087Z,8.11
2022-10-04T04:05:15.077Z,8.14
2022-10-04T04:06:15.084Z,8.05
2022-10-04T04:07:15.116Z,8.09
2022-10-04T04:08:15.113Z,8.14
2022-10-04T04:09:14.910Z,8.13
2022-10-04T04:10:20.562Z,8.09
2022-10-04T04:11:17.854Z,8.14
2022-10-04T04:12:15.103Z,8.06
2022-10-04T04:13:15.129Z,8.05
2022-10-04T04:14:15.120Z,8.03
2022-10-04T04:15:14.963Z,8.05
2022-10-04T04:16:15.332Z,8.06
2022-10-04T04:17:15.126Z,8.08
2022-10-04T04:18:15.144Z,8.11
2022-10-04T04:19:15.132Z,8.01
2022-10-04T04:20:15.161Z,8.08
2022-10-04T04:21:15.137Z,8.05
2022-10-04T04:22:18.165Z,8.08
2022-10-04T04:23:15.290Z,8.06
2022-10-04T04:24:15.112Z,8.14
2022-10-04T04:25:15.134Z,8.14
2022-10-04T04:26:15.138Z,8.05
2022-10-04T04:27:18.111Z,8.09
2022-10-04T04:28:15.574Z,8.08
2022-10-04T04:29:15.239Z,8.11
2022-10-04T04:30:15.108Z,8.18
2022-10-04T04:31:15.267Z,8.08
2022-10-04T04:32:19.795Z,8.18
2022-10-04T04:33:20.957Z,8.14
2022-10-04T04:34:15.157Z,8.11
2022-10-04T04:35:15.107Z,8.16
2022-10-04T04:36:15.122Z,8.02
2022-10-04T04:37:15.134Z,8.09
2022-10-04T04:38:16.871Z,8.03
2022-10-04T04:39:15.134Z,8.02
2022-10-04T04:40:15.117Z,8.09
2022-10-04T04:41:14.967Z,8.16
2022-10-04T04:42:15.267Z,8.05
2022-10-04T04:43:15.175Z,8.03
2022-10-04T04:44:18.190Z,8.03
2022-10-04T04:45:15.150Z,8.05
2022-10-04T04:46:31.705Z,8.09
2022-10-04T04:47:19.850Z,8.09
2022-10-04T04:48:15.160Z,8.03
2022-10-04T04:49:18.236Z,8.13
2022-10-04T04:50:15.143Z,8.05
2022-10-04T04:51:15.174Z,8.02
2022-10-04T04:52:15.176Z,8.03
2022-10-04T04:53:18.203Z,8.08
2022-10-04T04:54:15.312Z,8.08
2022-10-04T04:55:15.167Z,8.09
2022-10-04T04:56:20.488Z,8.09
2022-10-04T04:57:15.155Z,8.02
2022-10-04T04:58:15.217Z,8.18
2022-10-04T04:59:15.152Z,8.02
2022-10-04T05:00:18.222Z,8.11
2022-10-04T05:01:15.567Z,8.14
2022-10-04T05:02:15.361Z,8.16
2022-10-04T05:03:15.229Z,8.17
2022-10-04T05:04:15.154Z,8.26
2022-10-04T05:05:15.187Z,8.18
2022-10-04T05:06:15.162Z,8.11
2022-10-04T05:07:15.164Z,8.2
2022-10-04T05:08:15.177Z,8.05
2022-10-04T05:09:15.163Z,8.08
2022-10-04T05:10:15.193Z,8.2
2022-10-04T05:11:18.032Z,8.08
2022-10-04T05:12:15.172Z,8.13
2022-10-04T05:13:15.199Z,8.06
2022-10-04T05:14:15.167Z,8.08
2022-10-04T05:15:19.490Z,8.13
2022-10-04T05:16:15.415Z,8.13
2022-10-04T05:17:15.194Z,8.2
2022-10-04T05:18:15.235Z,8.23
2022-10-04T05:19:15.188Z,8.16
2022-10-04T05:20:15.257Z,8.09
2022-10-04T05:21:15.220Z,8.14
2022-10-04T05:22:16.251Z,8.18
2022-10-04T05:23:15.195Z,8.06
2022-10-04T05:24:15.414Z,8.09
2022-10-04T05:25:15.204Z,8.16
2022-10-04T05:26:15.308Z,8.14
2022-10-04T05:27:15.220Z,8.21
2022-10-04T05:28:15.509Z,8.18
2022-10-04T05:29:15.191Z,8.18
2022-10-04T05:30:15.238Z,8.16
2022-10-04T05:31:15.353Z,8.21
2022-10-04T05:32:15.515Z,8.28
2022-10-04T05:33:15.247Z,8.23
2022-10-04T05:34:15.216Z,8.35
2022-10-04T05:35:15.209Z,8.11
2022-10-04T05:36:15.241Z,8.23
2022-10-04T05:37:15.286Z,8.18
2022-10-04T05:38:15.245Z,8.18
2022-10-04T05:39:15.221Z,8.17
2022-10-04T05:40:18.271Z,8.14
2022-10-04T05:41:15.203Z,8.24
2022-10-04T05:42:15.346Z,8.14
2022-10-04T05:43:15.223Z,8.16
2022-10-04T05:44:15.230Z,8.21
2022-10-04T05:45:15.224Z,8.2
2022-10-04T05:46:15.412Z,8.27
2022-10-04T05:47:15.218Z,8.2
2022-10-04T05:48:15.273Z,8.24
2022-10-04T05:49:21.646Z,8.2
2022-10-04T05:50:15.221Z,8.27
2022-10-04T05:51:15.218Z,8.27
2022-10-04T05:52:15.220Z,8.21
2022-10-04T05:53:15.469Z,8.16
2022-10-04T05:54:15.227Z,8.28
2022-10-04T05:55:15.327Z,8.24
2022-10-04T05:56:15.246Z,8.28
2022-10-04T05:57:15.255Z,8.36
2022-10-04T05:58:15.276Z,8.32
2022-10-04T05:59:15.226Z,8.24
2022-10-04T06:00:15.243Z,8.27
2022-10-04T06:01:15.572Z,8.26
2022-10-04T06:02:15.404Z,8.24
2022-10-04T06:03:15.256Z,8.34
2022-10-04T06:04:15.343Z,8.26
2022-10-04T06:05:18.104Z,8.36
2022-10-04T06:06:15.245Z,8.34
2022-10-04T06:07:15.281Z,8.41
2022-10-04T06:08:15.270Z,8.31
2022-10-04T06:09:15.264Z,8.38
2022-10-04T06:10:15.247Z,8.31
2022-10-04T06:11:15.246Z,8.42
2022-10-04T06:12:15.256Z,8.32
2022-10-04T06:13:15.261Z,8.38
2022-10-04T06:14:15.306Z,8.39
2022-10-04T06:15:15.243Z,8.46
2022-10-04T06:16:18.418Z,8.38
2022-10-04T06:17:15.272Z,8.42
2022-10-04T06:18:15.269Z,8.45
2022-10-04T06:19:15.269Z,8.5
2022-10-04T06:20:15.386Z,8.45
2022-10-04T06:21:15.263Z,8.52
2022-10-04T06:22:15.277Z,8.59
2022-10-04T06:23:15.278Z,8.6
2022-10-04T06:24:15.264Z,8.6
2022-10-04T06:25:15.293Z,8.53
2022-10-04T06:26:15.267Z,8.53
2022-10-04T06:27:18.309Z,8.54
2022-10-04T06:28:15.553Z,8.53
2022-10-04T06:29:15.331Z,8.63
2022-10-04T06:30:18.362Z,8.59
2022-10-04T06:31:15.483Z,8.66
2022-10-04T06:32:15.288Z,8.56
2022-10-04T06:33:15.294Z,8.71
2022-10-04T06:34:15.322Z,8.71
2022-10-04T06:35:15.292Z,8.74
2022-10-04T06:36:15.157Z,8.79
2022-10-04T06:37:15.286Z,8.87
2022-10-04T06:38:18.244Z,8.86
2022-10-04T06:39:15.289Z,8.78
2022-10-04T06:40:15.304Z,8.81
2022-10-04T06:41:15.312Z,8.72
2022-10-04T06:42:15.363Z,8.9
2022-10-04T06:43:15.345Z,8.78
2022-10-04T06:44:15.348Z,8.86
2022-10-04T06:45:15.299Z,8.89
2022-10-04T06:46:15.598Z,8.93
2022-10-04T06:47:15.320Z,8.9
2022-10-04T06:48:15.318Z,8.95
2022-10-04T06:49:18.330Z,9.02
2022-10-04T06:50:15.308Z,9.11
2022-10-04T06:51:15.302Z,9.12
2022-10-04T06:52:20.004Z,9.08
2022-10-04T06:53:15.369Z,9
2022-10-04T06:54:18.144Z,9.16
2022-10-04T06:55:15.354Z,9.19
2022-10-04T06:56:15.315Z,9.21
2022-10-04T06:57:15.372Z,9.21
2022-10-04T06:58:15.327Z,9.31
2022-10-04T06:59:15.311Z,9.26
2022-10-04T07:00:18.091Z,9.3
2022-10-04T07:01:15.472Z,9.29
2022-10-04T07:02:15.820Z,9.31
2022-10-04T07:03:15.352Z,9.26
2022-10-04T07:04:15.326Z,9.36
2022-10-04T07:05:18.151Z,9.48
2022-10-04T07:06:15.336Z,9.44
2022-10-04T07:07:15.330Z,9.55
2022-10-04T07:08:15.384Z,9.51
2022-10-04T07:09:15.358Z,9.56
2022-10-04T07:10:15.544Z,9.58
2022-10-04T07:11:19.846Z,9.59
2022-10-04T07:12:15.391Z,9.64
2022-10-04T07:13:15.404Z,9.67
2022-10-04T07:14:15.336Z,9.73
2022-10-04T07:15:15.335Z,9.72
2022-10-04T07:16:18.522Z,9.72
2022-10-04T07:17:15.340Z,9.66
2022-10-04T07:18:15.482Z,9.77
2022-10-04T07:19:15.343Z,9.69
2022-10-04T07:20:15.347Z,9.81
2022-10-04T07:21:15.354Z,9.77
2022-10-04T07:22:18.449Z,9.8
2022-10-04T07:23:15.368Z,9.8
2022-10-04T07:24:15.382Z,9.85
2022-10-04T07:25:15.361Z,9.84
2022-10-04T07:26:15.356Z,9.85
2022-10-04T07:27:21.198Z,9.99
2022-10-04T07:28:15.604Z,9.97
2022-10-04T07:29:15.449Z,10
2022-10-04T07:30:15.377Z,9.99
2022-10-04T07:31:15.622Z,9.94
2022-10-04T07:32:15.380Z,10.02
2022-10-04T07:33:15.388Z,10.1
2022-10-04T07:34:15.404Z,10.06
2022-10-04T07:35:15.366Z,10.25
2022-10-04T07:36:18.678Z,10.21
2022-10-04T07:37:15.419Z,10.17
2022-10-04T07:38:15.707Z,10.25
2022-10-04T07:39:15.389Z,10.24
2022-10-04T07:40:15.417Z,10.41
2022-10-04T07:41:15.373Z,10.42
2022-10-04T07:42:15.416Z,10.39
2022-10-04T07:43:15.420Z,10.34
2022-10-04T07:44:15.385Z,10.45
2022-10-04T07:45:15.420Z,10.55
2022-10-04T07:46:15.578Z,10.65
2022-10-04T07:47:15.406Z,10.59
2022-10-04T07:48:15.402Z,10.65
2022-10-04T07:49:18.419Z,10.77
2022-10-04T07:50:15.402Z,10.82
2022-10-04T07:51:15.398Z,10.82
2022-10-04T07:52:15.411Z,10.86
2022-10-04T07:53:15.560Z,10.94
2022-10-04T07:54:15.401Z,11.01
2022-10-04T07:55:15.412Z,11.12
2022-10-04T07:56:15.431Z,11.1
2022-10-04T07:57:15.412Z,11.12
2022-10-04T07:58:15.438Z,11.12
2022-10-04T07:59:15.411Z,11.23
2022-10-04T08:00:15.415Z,11.23
2022-10-04T08:01:15.438Z,11.27
2022-10-04T08:02:15.980Z,11.45
2022-10-04T08:03:15.706Z,11.45
2022-10-04T08:04:15.420Z,11.49
2022-10-04T08:05:15.451Z,11.43
2022-10-04T08:06:15.418Z,11.4
2022-10-04T08:07:15.425Z,11.41
2022-10-04T08:08:15.436Z,11.53
2022-10-04T08:09:15.432Z,11.67
2022-10-04T08:10:16.504Z,11.89
2022-10-04T08:11:15.427Z,11.91
2022-10-04T08:12:15.731Z,11.91
2022-10-04T08:13:15.457Z,11.97
2022-10-04T08:14:15.432Z,12.07
2022-10-04T08:15:15.436Z,12.1
2022-10-04T08:16:15.775Z,12.11
2022-10-04T08:17:20.192Z,12.29
2022-10-04T08:18:15.490Z,12.21
2022-10-04T08:19:15.461Z,12.26
2022-10-04T08:20:15.777Z,12.29
2022-10-04T08:21:15.468Z,12.29
2022-10-04T08:22:15.459Z,12.32
2022-10-04T08:23:15.501Z,12.37
2022-10-04T08:24:15.478Z,12.44
2022-10-04T08:25:15.463Z,12.48
2022-10-04T08:26:18.538Z,12.63
2022-10-04T08:27:15.448Z,12.7
2022-10-04T08:28:15.814Z,12.76
2022-10-04T08:29:15.463Z,12.84
2022-10-04T08:30:15.465Z,12.88
2022-10-04T08:31:15.710Z,12.94
2022-10-04T08:32:18.492Z,13.02
2022-10-04T08:33:15.535Z,13.19
2022-10-04T08:34:15.476Z,13.08
2022-10-04T08:35:15.478Z,13.16
2022-10-04T08:36:15.478Z,13.28
2022-10-04T08:37:15.523Z,13.42
2022-10-04T08:38:15.502Z,13.43
2022-10-04T08:39:15.471Z,13.47
2022-10-04T08:40:18.090Z,13.47
2022-10-04T08:41:15.487Z,13.61
2022-10-04T08:42:15.481Z,13.65
2022-10-04T08:43:18.299Z,13.78
2022-10-04T08:44:15.690Z,13.82
2022-10-04T08:45:15.510Z,13.97
2022-10-04T08:46:15.677Z,14.04
2022-10-04T08:47:18.777Z,14.12
2022-10-04T08:48:15.515Z,14.16
2022-10-04T08:49:15.517Z,14.28
2022-10-04T08:50:15.521Z,14.15
2022-10-04T08:51:18.242Z,14.31
2022-10-04T08:52:15.486Z,14.26
2022-10-04T08:53:15.880Z,14.26
2022-10-04T08:54:18.604Z,14.26
2022-10-04T08:55:15.502Z,14.25
2022-10-04T08:56:15.502Z,14.11
2022-10-04T08:57:20.482Z,14.19
2022-10-04T08:58:15.557Z,14.07
2022-10-04T08:59:15.504Z,14.22
2022-10-04T09:00:16.609Z,14.37
2022-10-04T09:01:15.685Z,14.45
2022-10-04T09:02:15.680Z,14.62
2022-10-04T09:03:15.365Z,14.7
2022-10-04T09:04:15.524Z,14.7
2022-10-04T09:05:18.437Z,14.68
2022-10-04T09:06:15.520Z,14.71
2022-10-04T09:07:15.532Z,14.85
2022-10-04T09:08:15.555Z,14.97
2022-10-04T09:09:15.587Z,14.89
2022-10-04T09:10:15.533Z,14.94
2022-10-04T09:11:15.522Z,14.94
2022-10-04T09:12:15.559Z,15.02
2022-10-04T09:13:15.572Z,14.86
2022-10-04T09:14:15.537Z,14.68
2022-10-04T09:15:15.532Z,14.73
2022-10-04T09:16:18.777Z,14.87
2022-10-04T09:17:18.569Z,14.9
2022-10-04T09:18:15.593Z,14.89
2022-10-04T09:19:15.549Z,14.97
2022-10-04T09:20:42.397Z,14.79
2022-10-04T09:21:18.730Z,14.94
2022-10-04T09:22:15.544Z,14.97
2022-10-04T09:23:15.658Z,15
2022-10-04T09:24:15.574Z,14.96
2022-10-04T09:25:16.690Z,15.11
2022-10-04T09:26:15.583Z,15.22
2022-10-04T09:27:31.662Z,15.22
2022-10-04T09:28:15.867Z,15.14
2022-10-04T09:29:15.608Z,15.26
2022-10-04T09:30:15.619Z,15.14
2022-10-04T09:31:15.738Z,15.27
2022-10-04T09:32:18.675Z,15.39
2022-10-04T09:33:15.577Z,15.48
2022-10-04T09:34:15.566Z,15.54
2022-10-04T09:35:15.599Z,15.63
2022-10-04T09:36:15.604Z,15.8
2022-10-04T09:37:15.570Z,15.84
2022-10-04T09:38:18.437Z,16.02
2022-10-04T09:39:34.615Z,16.08
2022-10-04T09:40:15.622Z,16.13
2022-10-04T09:41:15.617Z,16.12
2022-10-04T09:42:15.600Z,16.34
2022-10-04T09:43:16.997Z,16.47
2022-10-04T09:44:15.587Z,16.58
2022-10-04T09:45:15.586Z,16.66
2022-10-04T09:46:15.782Z,16.73
2022-10-04T09:47:15.606Z,16.66
2022-10-04T09:48:15.631Z,17.05
2022-10-04T09:49:15.655Z,17.2
2022-10-04T09:50:15.585Z,17.32
2022-10-04T09:51:15.619Z,17.59
2022-10-04T09:52:15.627Z,17.72
2022-10-04T09:53:15.619Z,17.8
2022-10-04T09:54:18.366Z,18.06
2022-10-04T09:55:15.600Z,18.3
2022-10-04T09:56:15.606Z,18.45
2022-10-04T09:57:15.705Z,18.61
2022-10-04T09:58:15.624Z,18.78
2022-10-04T09:59:15.603Z,18.78
2022-10-04T10:00:15.771Z,18.68
2022-10-04T10:01:15.756Z,19
2022-10-04T10:02:15.617Z,19.23
2022-10-04T10:03:20.571Z,19.27
2022-10-04T10:04:15.644Z,19.3
2022-10-04T10:05:18.400Z,19.34
2022-10-04T10:06:15.643Z,19.26
2022-10-04T10:07:18.637Z,19.23
2022-10-04T10:08:15.650Z,19.24
2022-10-04T10:09:15.626Z,19.48
2022-10-04T10:10:15.761Z,19.55
2022-10-04T10:11:15.637Z,19.6
2022-10-04T10:12:15.657Z,19.57
2022-10-04T10:13:15.659Z,19.62
2022-10-04T10:14:15.656Z,19.72
2022-10-04T10:15:15.639Z,19.78
2022-10-04T10:16:20.472Z,19.74
2022-10-04T10:17:15.646Z,19.55
2022-10-04T10:18:15.642Z,19.67
2022-10-04T10:19:15.649Z,19.52
2022-10-04T10:20:15.771Z,19.71
2022-10-04T10:21:15.647Z,19.77
2022-10-04T10:22:15.666Z,19.75
2022-10-04T10:23:15.664Z,19.79
2022-10-04T10:24:15.710Z,19.78
2022-10-04T10:25:15.668Z,19.89
2022-10-04T10:26:15.675Z,19.77
2022-10-04T10:27:15.671Z,19.7
2022-10-04T10:28:15.829Z,19.89
2022-10-04T10:29:15.707Z,20.03
2022-10-04T10:30:15.865Z,20.07
2022-10-04T10:31:16.003Z,20.24
2022-10-04T10:32:15.674Z,20.42
2022-10-04T10:33:15.673Z,20.36
2022-10-04T10:34:15.669Z,20.48
2022-10-04T10:35:15.693Z,20.24
2022-10-04T10:36:15.700Z,20.55
2022-10-04T10:37:15.682Z,20.71
2022-10-04T10:38:18.478Z,20.75
2022-10-04T10:39:15.686Z,20.86
2022-10-04T10:40:15.755Z,20.78
2022-10-04T10:41:15.679Z,20.78
2022-10-04T10:42:15.687Z,20.89
2022-10-04T10:43:15.691Z,21.08
2022-10-04T10:44:15.750Z,21
2022-10-04T10:45:15.718Z,20.98
2022-10-04T10:46:18.897Z,21.01
2022-10-04T10:47:15.699Z,21.03
2022-10-04T10:48:15.690Z,21.07
2022-10-04T10:49:18.898Z,21.03
2022-10-04T10:50:15.806Z,20.98
2022-10-04T10:51:15.699Z,20.92
2022-10-04T10:52:15.731Z,20.86
2022-10-04T10:53:15.713Z,20.78
2022-10-04T10:54:15.726Z,20.83
2022-10-04T10:55:15.716Z,20.71
2022-10-04T10:56:15.754Z,20.8
2022-10-04T10:57:15.703Z,20.66
2022-10-04T10:58:15.773Z,20.7
2022-10-04T10:59:16.835Z,20.68
2022-10-04T11:00:15.819Z,20.74
2022-10-04T11:01:15.859Z,20.64
2022-10-04T11:02:16.103Z,20.66
2022-10-04T11:03:27.239Z,20.64
2022-10-04T11:04:15.752Z,20.48
2022-10-04T11:05:15.724Z,20.48
2022-10-04T11:06:15.755Z,20.58
2022-10-04T11:07:15.773Z,20.66
2022-10-04T11:08:15.760Z,20.48
2022-10-04T11:09:15.768Z,20.59
2022-10-04T11:10:18.523Z,20.55
2022-10-04T11:11:15.790Z,20.4
2022-10-04T11:12:15.763Z,20.48
2022-10-04T11:13:15.739Z,20.24
2022-10-04T11:14:15.756Z,20.36
2022-10-04T11:15:15.740Z,20.26
2022-10-04T11:16:15.913Z,20.12
2022-10-04T11:17:15.792Z,20.15
2022-10-04T11:18:15.882Z,20.08
2022-10-04T11:19:15.786Z,20.12
2022-10-04T11:20:15.755Z,20.22
2022-10-04T11:21:18.759Z,20.19
2022-10-04T11:22:15.759Z,20.17
2022-10-04T11:23:15.750Z,20.39
2022-10-04T11:24:15.862Z,20.46
2022-10-04T11:25:15.769Z,20.53
2022-10-04T11:26:15.786Z,20.58
2022-10-04T11:27:15.781Z,20.59
2022-10-04T11:28:16.041Z,20.59
2022-10-04T11:29:15.792Z,20.68
2022-10-04T11:30:15.798Z,20.78
2022-10-04T11:31:16.073Z,20.77
2022-10-04T11:32:18.654Z,20.68
2022-10-04T11:33:15.777Z,20.85
2022-10-04T11:34:21.080Z,20.7
2022-10-04T11:35:15.782Z,20.67
2022-10-04T11:36:18.519Z,20.73
2022-10-04T11:37:15.785Z,20.78
2022-10-04T11:38:15.793Z,20.8
2022-10-04T11:39:15.849Z,20.95
2022-10-04T11:40:15.837Z,20.71
2022-10-04T11:41:15.793Z,20.74
2022-10-04T11:42:15.789Z,20.77
2022-10-04T11:43:18.629Z,20.93
2022-10-04T11:44:15.837Z,21.11
2022-10-04T11:45:15.811Z,21.28
2022-10-04T11:46:16.187Z,21.38
2022-10-04T11:47:15.987Z,21.53
2022-10-04T11:48:18.972Z,21.53
2022-10-04T11:49:15.827Z,21.59
2022-10-04T11:50:15.827Z,21.69
2022-10-04T11:51:15.821Z,21.66
2022-10-04T11:52:15.812Z,21.66
2022-10-04T11:53:15.820Z,21.54
2022-10-04T11:54:18.867Z,21.44
2022-10-04T11:55:15.817Z,21.38
2022-10-04T11:56:15.838Z,21.3
2022-10-04T11:57:15.827Z,21.35
2022-10-04T11:58:16.837Z,21.45
2022-10-04T11:59:17.079Z,21.43
2022-10-04T12:00:15.826Z,21.47
2022-10-04T12:01:15.829Z,21.68
2022-10-04T12:02:15.836Z,21.3
2022-10-04T12:03:16.299Z,21.54
2022-10-04T12:04:16.449Z,21.51
2022-10-04T12:05:18.863Z,21.54
2022-10-04T12:06:15.834Z,21.7
2022-10-04T12:07:15.850Z,21.72
2022-10-04T12:08:15.867Z,21.78
2022-10-04T12:09:15.862Z,21.69
2022-10-04T12:10:16.991Z,21.62
2022-10-04T12:11:15.905Z,21.6
2022-10-04T12:12:15.875Z,21.8
2022-10-04T12:13:16.027Z,21.99
2022-10-04T12:14:15.864Z,21.78
2022-10-04T12:15:15.874Z,21.84
2022-10-04T12:16:18.928Z,21.99
2022-10-04T12:17:18.840Z,22.03
2022-10-04T12:18:15.859Z,22.01
2022-10-04T12:19:15.993Z,21.94
2022-10-04T12:20:16.895Z,21.96
2022-10-04T12:21:18.980Z,22.12
2022-10-04T12:22:15.866Z,22.14
2022-10-04T12:23:15.888Z,21.97
2022-10-04T12:24:15.898Z,21.94
2022-10-04T12:25:15.951Z,21.89
2022-10-04T12:26:21.763Z,21.81
2022-10-04T12:27:15.905Z,21.83
2022-10-04T12:28:16.373Z,22
2022-10-04T12:29:15.906Z,21.75
2022-10-04T12:30:15.948Z,21.78
2022-10-04T12:31:16.113Z,21.8
2022-10-04T12:32:18.681Z,21.84
2022-10-04T12:33:15.923Z,21.94
2022-10-04T12:34:15.916Z,21.94
2022-10-04T12:35:15.960Z,22.14
2022-10-04T12:36:16.004Z,22.3
2022-10-04T12:37:18.375Z,22.1
2022-10-04T12:38:15.894Z,22.16
2022-10-04T12:39:15.912Z,22.34
2022-10-04T12:40:15.910Z,22.3
2022-10-04T12:41:15.974Z,22.1
2022-10-04T12:42:15.900Z,22.08
2022-10-04T12:43:18.676Z,22.26
2022-10-04T12:44:15.961Z,22.3
2022-10-04T12:45:15.913Z,22.31
2022-10-04T12:46:16.284Z,22.37
2022-10-04T12:47:15.983Z,22.52
2022-10-04T12:48:15.937Z,22.53
2022-10-04T12:49:15.931Z,22.58
2022-10-04T12:50:15.914Z,22.49
2022-10-04T12:51:15.921Z,22.51
2022-10-04T12:52:16.265Z,22.44
2022-10-04T12:53:15.927Z,22.34
2022-10-04T12:54:15.941Z,22.47
2022-10-04T12:55:15.946Z,22.43
2022-10-04T12:56:15.929Z,22.47
2022-10-04T12:57:15.941Z,22.26
2022-10-04T12:58:16.038Z,22.26
2022-10-04T12:59:15.961Z,22.21
2022-10-04T13:00:15.967Z,22.25
2022-10-04T13:01:16.139Z,22.3
2022-10-04T13:02:16.215Z,22.21
2022-10-04T13:03:16.046Z,22.15
2022-10-04T13:04:16.029Z,22.25
2022-10-04T13:05:16.001Z,22.04
2022-10-04T13:06:15.968Z,21.96
2022-10-04T13:07:15.975Z,22.16
2022-10-04T13:08:15.983Z,22.26
2022-10-04T13:09:16.056Z,22.18